createdAt,value
2023-05-10T00:09:49.572Z,42.49
2023-05-10T00:19:56.342Z,42.53
2023-05-10T00:30:02.691Z,42.56
2023-05-10T00:40:09.589Z,42.59
2023-05-10T00:50:17.141Z,42.57
2023-05-10T01:00:24.561Z,42.60
2023-05-10T01:10:32.280Z,42.64
2023-05-10T01:20:38.832Z,42.65
2023-05-10T01:30:45.919Z,42.66
2023-05-10T01:40:53.222Z,42.65
2023-05-10T01:51:00.323Z,42.66
2023-05-10T02:01:07.984Z,42.66
2023-05-10T02:11:15.324Z,42.67
2023-05-10T02:21:22.331Z,42.72
2023-05-10T02:31:29.191Z,42.78
2023-05-10T02:41:36.468Z,42.76
2023-05-10T02:51:43.266Z,42.77
2023-05-10T03:01:50.407Z,42.77
2023-05-10T03:11:57.797Z,42.79
2023-05-10T03:22:05.020Z,42.82
2023-05-10T03:32:12.671Z,42.84
2023-05-10T03:42:19.730Z,42.86
2023-05-10T03:52:26.759Z,42.86
2023-05-10T04:02:33.596Z,42.87
2023-05-10T04:12:40.797Z,42.89
2023-05-10T04:22:47.875Z,42.93
2023-05-10T04:32:54.537Z,42.97
2023-05-10T04:43:01.640Z,42.98
2023-05-10T04:53:08.938Z,42.98
2023-05-10T05:03:15.997Z,43.02
2023-05-10T05:13:22.893Z,43.29
2023-05-10T05:23:29.660Z,43.72
2023-05-10T05:33:37.005Z,43.98
2023-05-10T05:43:44.521Z,44.88
2023-05-10T05:53:51.006Z,45.82
2023-05-10T06:03:58.359Z,47.08
2023-05-10T06:14:05.291Z,47.83
2023-05-10T06:24:12.577Z,47.89
2023-05-10T06:34:19.650Z,47.67
2023-05-10T06:44:26.243Z,47.81
2023-05-10T06:54:33.503Z,48.01
2023-05-10T07:04:40.470Z,47.66
2023-05-10T07:14:47.390Z,47.19
2023-05-10T07:24:55.007Z,46.86
2023-05-10T07:35:02.631Z,46.79
2023-05-10T07:45:09.599Z,47.00
2023-05-10T07:55:18.192Z,47.06
2023-05-10T08:05:25.539Z,46.89
2023-05-10T08:15:32.786Z,39.62
2023-05-10T08:25:39.885Z,37.23
2023-05-10T08:35:46.940Z,37.39
2023-05-10T08:45:53.730Z,37.51
2023-05-10T08:56:00.642Z,37.88
2023-05-10T09:06:07.692Z,37.90
2023-05-10T09:26:27.239Z,38.30
2023-05-10T09:36:33.917Z,38.37
2023-05-10T09:46:40.297Z,38.35
2023-05-10T09:56:47.234Z,38.55
2023-05-10T10:06:54.045Z,39.41
2023-05-10T10:17:08.108Z,39.50
2023-05-10T10:27:13.395Z,39.57
2023-05-10T10:37:20.540Z,39.51
2023-05-10T10:47:27.559Z,41.56
2023-05-10T10:57:34.527Z,41.94
2023-05-10T11:07:41.292Z,42.32
2023-05-10T11:17:48.576Z,42.53
2023-05-10T11:27:55.370Z,42.98
2023-05-10T11:38:03.610Z,43.02
2023-05-10T11:48:11.046Z,43.26
2023-05-10T11:58:18.542Z,43.30
2023-05-10T12:08:25.972Z,42.67
2023-05-10T12:18:32.630Z,42.69
2023-05-10T12:28:39.594Z,43.40
2023-05-10T12:38:46.886Z,43.79
2023-05-10T12:49:03.265Z,43.98
2023-05-10T12:59:05.078Z,44.01
2023-05-10T13:09:12.221Z,44.05
2023-05-10T13:19:19.194Z,44.45
2023-05-10T13:29:25.972Z,44.79
2023-05-10T13:39:33.709Z,44.99
2023-05-10T13:49:40.288Z,45.17
2023-05-10T13:59:47.603Z,45.34
2023-05-10T14:09:54.204Z,45.42
2023-05-10T14:20:01.672Z,45.52
2023-05-10T14:30:08.352Z,45.64
2023-05-10T14:40:15.669Z,45.70
2023-05-10T14:50:35.993Z,45.87
2023-05-10T15:00:34.512Z,45.93
2023-05-10T15:10:41.665Z,45.87
2023-05-10T15:20:48.514Z,45.99
2023-05-10T15:30:55.997Z,46.10
2023-05-10T15:41:04.142Z,46.30
2023-05-10T15:51:11.159Z,46.61
2023-05-10T16:01:18.032Z,46.94
2023-05-10T16:11:25.117Z,47.26
2023-05-10T16:21:32.306Z,47.48
2023-05-10T16:31:38.920Z,47.71
2023-05-10T16:41:45.905Z,48.03
2023-05-10T16:51:53.363Z,48.42
2023-05-10T17:02:00.279Z,48.62
2023-05-10T17:12:07.213Z,48.67
2023-05-10T17:22:14.480Z,48.56
2023-05-10T17:32:21.235Z,48.44
2023-05-10T17:42:28.225Z,48.32
2023-05-10T17:52:35.246Z,48.20
2023-05-10T18:02:42.401Z,48.48
2023-05-10T18:12:49.594Z,48.44
2023-05-10T18:22:56.465Z,48.23
2023-05-10T18:33:05.503Z,48.00
2023-05-10T18:43:12.559Z,47.90
2023-05-10T18:53:19.603Z,47.80
2023-05-10T19:03:26.546Z,47.82
2023-05-10T19:13:33.953Z,47.86
2023-05-10T19:23:41.000Z,47.85
2023-05-10T19:33:47.853Z,47.84
2023-05-10T19:43:54.781Z,47.86
2023-05-10T19:54:02.123Z,47.90
2023-05-10T20:04:09.290Z,47.93
2023-05-10T20:14:15.961Z,47.96
2023-05-10T20:24:22.842Z,47.95
2023-05-10T20:34:30.502Z,47.96
2023-05-10T20:44:37.931Z,47.98
2023-05-10T20:54:44.845Z,48.00
2023-05-10T21:04:52.096Z,48.04
2023-05-10T21:14:58.945Z,48.08
2023-05-10T21:25:06.615Z,48.08
2023-05-10T21:35:13.334Z,48.12
2023-05-10T21:45:20.661Z,48.15
2023-05-10T21:55:27.297Z,48.19
2023-05-10T22:05:34.621Z,48.23
2023-05-10T22:15:41.428Z,48.27
2023-05-10T22:25:48.227Z,48.30
2023-05-10T22:35:54.156Z,48.34
2023-05-10T22:46:00.238Z,48.38
2023-05-10T22:56:08.022Z,48.41
2023-05-10T23:06:14.513Z,48.47
2023-05-10T23:16:21.887Z,48.51
2023-05-10T23:26:29.081Z,48.53
2023-05-10T23:36:35.634Z,48.56
2023-05-10T23:46:42.714Z,48.58
2023-05-10T23:56:49.157Z,48.60
